McNary, Louisiana
Current Conditions -  °F | °C
As of 8:15 AM on Friday 19 Dec 2014 (Local Time) from KACP Reporting Station
Drizzle Drizzle  
Wind Chill: 53°   Ceiling: 400
Heat Index: 53°   Visibility: 7mi
Dew Point: 51°   Wind: 7mph
Humidity: 94%   Direction: 240°WSW
Pressure: 30.14"   Gusts: NA
Location:  30.9922°N, 92.6266°W
Report Text: KACP 191415Z AUTO 24006KT 7SM -DZ OVC004 12/11 A3014 RMK AO2 T01160107
Loading
Personal Weather Stations






























Interactive Weather Map New forecast layout! Learn more

10-Day Weather Forecast

Advertisements
Track Severe Weather on mobile